createdAt,value
2023-03-05T00:01:33.361Z,1.15
2023-03-05T00:04:02.515Z,1.70
2023-03-05T00:06:30.960Z,1.60
2023-03-05T00:08:58.713Z,0.60
2023-03-05T00:11:29.939Z,0.88
2023-03-05T00:14:03.630Z,0.55
2023-03-05T00:16:32.705Z,1.30
2023-03-05T00:19:02.915Z,1.40
2023-03-05T00:21:36.832Z,0.65
2023-03-05T00:24:11.794Z,1.10
2023-03-05T00:26:39.728Z,1.00
2023-03-05T00:29:07.695Z,0.80
2023-03-05T00:31:36.175Z,0.93
2023-03-05T00:34:07.210Z,0.70
2023-03-05T00:36:34.493Z,0.60
2023-03-05T00:39:02.132Z,0.57
2023-03-05T00:41:29.744Z,0.70
2023-03-05T00:43:57.361Z,0.47
2023-03-05T00:46:27.623Z,1.13
2023-03-05T00:48:55.784Z,0.40
2023-03-05T00:51:23.675Z,0.35
2023-03-05T00:53:51.334Z,0.50
2023-03-05T00:56:19.171Z,0.65
2023-03-05T00:58:46.897Z,0.60
2023-03-05T01:01:17.481Z,0.60
2023-03-05T01:03:45.229Z,0.30
2023-03-05T01:06:15.240Z,0.68
2023-03-05T01:08:45.037Z,0.50
2023-03-05T01:11:16.113Z,0.80
2023-03-05T01:13:44.384Z,0.55
2023-03-05T01:16:12.152Z,0.90
2023-03-05T01:18:40.881Z,0.68
2023-03-05T01:21:08.924Z,0.50
2023-03-05T01:23:37.555Z,0.43
2023-03-05T01:26:06.448Z,0.30
2023-03-05T01:28:34.064Z,0.25
2023-03-05T01:31:01.728Z,0.68
2023-03-05T01:33:29.619Z,1.13
2023-03-05T01:35:56.658Z,0.47
2023-03-05T01:38:27.175Z,0.85
2023-03-05T01:40:54.734Z,0.60
2023-03-05T01:43:30.766Z,0.50
2023-03-05T01:46:16.998Z,0.70
2023-03-05T01:48:59.689Z,0.82
2023-03-05T01:51:30.426Z,0.60
2023-03-05T01:53:59.222Z,0.70
2023-03-05T01:56:30.886Z,0.63
2023-03-05T01:59:03.516Z,0.60
2023-03-05T02:01:38.533Z,0.45
2023-03-05T02:04:06.502Z,0.75
2023-03-05T02:06:34.410Z,0.35
2023-03-05T02:09:02.093Z,0.77
2023-03-05T02:11:30.073Z,0.50
2023-03-05T02:13:58.162Z,0.50
2023-03-05T02:16:27.096Z,1.15
2023-03-05T02:18:54.730Z,0.60
2023-03-05T02:21:35.966Z,0.68
2023-03-05T02:24:03.506Z,0.60
2023-03-05T02:26:32.503Z,0.80
2023-03-05T02:29:05.500Z,0.65
2023-03-05T02:31:33.300Z,0.60
2023-03-05T02:34:01.626Z,1.02
2023-03-05T02:36:29.758Z,0.40
2023-03-05T02:38:57.263Z,0.52
2023-03-05T02:41:27.008Z,0.40
2023-03-05T02:43:59.367Z,0.40
2023-03-05T02:46:27.201Z,0.63
2023-03-05T02:48:54.767Z,0.35
2023-03-05T02:51:22.240Z,0.70
2023-03-05T02:53:52.249Z,0.47
2023-03-05T02:56:19.924Z,0.82
2023-03-05T02:58:47.480Z,0.50
2023-03-05T03:01:17.822Z,0.43
2023-03-05T03:03:47.914Z,0.38
2023-03-05T03:06:15.815Z,0.30
2023-03-05T03:08:44.119Z,0.60
2023-03-05T03:11:13.427Z,0.70
2023-03-05T03:13:41.231Z,0.43
2023-03-05T03:16:11.573Z,0.57
2023-03-05T03:18:39.108Z,0.55
2023-03-05T03:21:07.070Z,0.50
2023-03-05T03:23:34.807Z,0.40
2023-03-05T03:26:02.284Z,0.38
2023-03-05T03:28:32.028Z,0.47
2023-03-05T03:31:02.580Z,0.45
2023-03-05T03:33:30.116Z,0.30
2023-03-05T03:36:00.672Z,0.82
2023-03-05T03:38:30.888Z,0.50
2023-03-05T03:41:00.673Z,0.08
2023-03-05T03:43:28.314Z,0.50
2023-03-05T03:45:55.983Z,0.47
2023-03-05T03:48:23.092Z,0.50
2023-03-05T03:50:50.616Z,0.65
2023-03-05T03:53:20.105Z,0.40
2023-03-05T03:55:47.911Z,0.50
2023-03-05T03:58:15.750Z,0.65
2023-03-05T04:00:43.493Z,0.40
2023-03-05T04:03:10.725Z,0.30
2023-03-05T04:05:37.812Z,0.30
2023-03-05T04:08:05.781Z,0.32
2023-03-05T04:10:33.524Z,0.32
2023-03-05T04:13:01.097Z,0.38
2023-03-05T04:15:30.176Z,0.68
2023-03-05T04:17:57.426Z,0.60
2023-03-05T04:20:24.908Z,0.65
2023-03-05T04:22:52.081Z,0.40
2023-03-05T04:25:19.492Z,0.35
2023-03-05T04:27:51.851Z,0.47
2023-03-05T04:30:19.303Z,0.60
2023-03-05T04:32:49.965Z,0.40
2023-03-05T04:35:17.437Z,3.47
2023-03-05T04:37:44.629Z,0.85
2023-03-05T04:40:12.428Z,16.60
2023-03-05T04:42:40.051Z,14.32
2023-03-05T04:45:08.450Z,16.92
2023-03-05T04:47:35.502Z,2.45
2023-03-05T04:50:04.077Z,0.95
2023-03-05T04:52:31.541Z,0.43
2023-03-05T04:54:59.183Z,0.50
2023-03-05T04:57:26.242Z,0.77
2023-03-05T04:59:53.820Z,0.30
2023-03-05T05:02:29.927Z,0.30
2023-03-05T05:04:57.116Z,0.30
2023-03-05T05:07:26.663Z,0.47
2023-03-05T05:09:54.689Z,0.47
2023-03-05T05:12:29.574Z,0.50
2023-03-05T05:15:01.589Z,0.40
2023-03-05T05:17:33.477Z,0.45
2023-03-05T05:20:08.383Z,0.77
2023-03-05T05:22:36.552Z,0.50
2023-03-05T05:25:04.119Z,0.28
2023-03-05T05:27:31.237Z,0.50
2023-03-05T05:29:58.738Z,0.40
2023-03-05T05:32:26.570Z,0.40
2023-03-05T05:34:56.076Z,0.40
2023-03-05T05:37:23.743Z,0.47
2023-03-05T05:39:51.363Z,0.43
2023-03-05T05:42:20.093Z,0.43
2023-03-05T05:44:48.083Z,0.47
2023-03-05T05:47:16.282Z,0.82
2023-03-05T05:49:46.206Z,0.40
2023-03-05T05:52:14.109Z,0.35
2023-03-05T05:54:41.606Z,0.28
2023-03-05T05:57:08.831Z,0.55
2023-03-05T05:59:37.552Z,0.40
2023-03-05T06:02:05.496Z,0.50
2023-03-05T06:04:33.075Z,0.10
2023-03-05T06:07:00.610Z,0.32
2023-03-05T06:09:28.245Z,0.30
2023-03-05T06:11:55.528Z,0.28
2023-03-05T06:14:23.110Z,0.15
2023-03-05T06:16:52.878Z,0.20
2023-03-05T06:19:20.737Z,0.17
2023-03-05T06:21:48.441Z,0.43
2023-03-05T06:24:15.621Z,0.57
2023-03-05T06:26:42.713Z,0.63
2023-03-05T06:29:10.615Z,0.35
2023-03-05T06:31:39.376Z,0.30
2023-03-05T06:34:06.853Z,0.25
2023-03-05T06:36:33.912Z,0.35
2023-03-05T06:39:01.384Z,0.50
2023-03-05T06:41:32.685Z,0.20
2023-03-05T06:44:02.438Z,0.30
2023-03-05T06:46:35.072Z,1.05
2023-03-05T06:49:03.854Z,0.70
2023-03-05T06:51:33.927Z,1.58
2023-03-05T06:54:06.542Z,10.02
2023-03-05T06:56:36.292Z,5.25
2023-03-05T06:59:04.202Z,0.95
2023-03-05T07:01:31.572Z,0.75
2023-03-05T07:04:00.392Z,0.50
2023-03-05T07:06:27.835Z,0.77
2023-03-05T07:09:02.263Z,0.40
2023-03-05T07:11:30.298Z,0.73
2023-03-05T07:14:01.021Z,0.40
2023-03-05T07:16:35.995Z,0.38
2023-03-05T07:19:06.484Z,0.32
2023-03-05T07:21:35.200Z,0.38
2023-03-05T07:24:05.386Z,0.55
2023-03-05T07:26:36.172Z,0.50
2023-03-05T07:29:04.308Z,0.50
2023-03-05T07:31:36.777Z,0.75
2023-03-05T07:34:04.333Z,1.30
2023-03-05T07:36:31.823Z,1.45
2023-03-05T07:38:59.295Z,1.67
2023-03-05T07:41:26.757Z,1.10
2023-03-05T07:43:54.856Z,1.55
2023-03-05T07:46:26.528Z,1.35
2023-03-05T07:48:58.542Z,0.90
2023-03-05T07:51:27.099Z,1.30
2023-03-05T07:53:56.395Z,0.70
2023-03-05T07:56:26.838Z,0.70
2023-03-05T07:58:53.948Z,0.60
2023-03-05T08:01:21.008Z,1.88
2023-03-05T08:03:48.994Z,0.60
2023-03-05T08:06:16.629Z,1.67
2023-03-05T08:08:43.639Z,0.30
2023-03-05T08:11:13.520Z,1.02
2023-03-05T08:13:41.143Z,0.55
2023-03-05T08:16:11.632Z,0.43
2023-03-05T08:18:38.625Z,0.63
2023-03-05T08:21:06.073Z,0.50
2023-03-05T08:23:36.881Z,0.50
2023-03-05T08:26:12.414Z,0.38
2023-03-05T08:28:39.550Z,0.63
2023-03-05T08:31:11.709Z,6.38
2023-03-05T08:33:39.453Z,0.60
2023-03-05T08:36:10.610Z,1.25
2023-03-05T08:38:37.658Z,2.90
2023-03-05T08:41:05.798Z,2.45
2023-03-05T08:43:33.232Z,0.40
2023-03-05T08:46:04.111Z,0.60
2023-03-05T08:48:31.805Z,0.32
2023-03-05T08:51:06.803Z,0.43
2023-03-05T08:53:34.264Z,0.60
2023-03-05T08:56:01.412Z,0.40
2023-03-05T08:58:28.395Z,1.75
2023-03-05T09:00:59.207Z,3.33
2023-03-05T09:03:26.969Z,0.55
2023-03-05T09:05:54.239Z,0.70
2023-03-05T09:08:22.384Z,1.67
2023-03-05T09:10:49.583Z,0.40
2023-03-05T09:13:17.206Z,0.40
2023-03-05T09:15:44.697Z,0.40
2023-03-05T09:18:11.938Z,1.50
2023-03-05T09:20:39.284Z,2.30
2023-03-05T09:23:06.417Z,0.65
2023-03-05T09:25:33.431Z,0.50
2023-03-05T09:28:00.402Z,0.57
2023-03-05T09:30:27.516Z,5.97
2023-03-05T09:32:54.684Z,0.60
2023-03-05T09:35:21.761Z,0.45
2023-03-05T09:37:48.937Z,0.75
2023-03-05T09:40:19.268Z,0.32
2023-03-05T09:43:19.696Z,0.73
2023-03-05T09:46:28.180Z,0.75
2023-03-05T09:49:12.410Z,0.52
2023-03-05T09:51:42.193Z,0.75
2023-03-05T09:56:47.399Z,0.60
2023-03-05T09:59:27.556Z,0.70
2023-03-05T10:01:59.580Z,0.63
2023-03-05T10:04:41.799Z,0.35
2023-03-05T10:07:25.813Z,0.50
2023-03-05T10:09:59.976Z,0.95
2023-03-05T10:12:50.270Z,0.85
2023-03-05T10:15:55.823Z,0.50
2023-03-05T10:18:40.148Z,0.45
2023-03-05T10:21:15.773Z,0.60
2023-03-05T10:26:27.293Z,1.23
2023-03-05T10:29:18.618Z,0.65
2023-03-05T10:31:46.297Z,0.40
2023-03-05T10:34:48.755Z,0.90
2023-03-05T10:37:32.111Z,0.52
2023-03-05T10:40:20.080Z,0.60
2023-03-05T10:43:10.379Z,0.60
2023-03-05T10:45:42.890Z,1.52
2023-03-05T10:48:34.685Z,0.57
2023-03-05T10:51:21.410Z,0.80
2023-03-05T10:54:02.041Z,0.55
2023-03-05T10:56:31.764Z,0.63
2023-03-05T10:58:59.045Z,0.60
2023-03-05T11:01:29.639Z,0.40
2023-03-05T11:04:04.320Z,0.50
2023-03-05T11:06:43.479Z,0.50
2023-03-05T11:09:22.681Z,0.40
2023-03-05T11:12:17.699Z,0.40
2023-03-05T11:15:06.121Z,0.60
2023-03-05T11:17:49.042Z,0.45
2023-03-05T11:20:19.586Z,0.57
2023-03-05T11:23:16.010Z,0.38
2023-03-05T11:25:54.710Z,0.40
2023-03-05T11:28:54.049Z,0.30
2023-03-05T11:31:24.413Z,0.60
2023-03-05T11:34:21.015Z,0.30
2023-03-05T11:36:51.838Z,0.47
2023-03-05T11:39:22.408Z,0.40
2023-03-05T11:42:07.207Z,0.30
2023-03-05T11:44:40.279Z,0.30
2023-03-05T11:47:27.207Z,0.35
2023-03-05T11:50:16.160Z,0.28
2023-03-05T11:52:48.038Z,0.30
2023-03-05T11:55:27.254Z,0.30
2023-03-05T11:58:13.145Z,0.55
2023-03-05T12:00:45.203Z,0.70
2023-03-05T12:03:16.221Z,0.45
2023-03-05T12:05:48.047Z,0.75
2023-03-05T12:08:21.508Z,0.30
2023-03-05T12:10:48.885Z,0.40
2023-03-05T12:13:34.769Z,0.35
2023-03-05T12:16:13.896Z,0.35
2023-03-05T12:19:25.983Z,0.38
2023-03-05T12:21:54.482Z,0.13
2023-03-05T12:24:27.472Z,0.30
2023-03-05T12:27:04.014Z,0.50
2023-03-05T12:29:50.899Z,0.20
2023-03-05T12:32:31.409Z,0.50
2023-03-05T12:35:00.983Z,0.13
2023-03-05T12:37:28.220Z,0.90
2023-03-05T12:40:00.892Z,0.40
2023-03-05T12:42:31.457Z,0.30
2023-03-05T12:45:28.016Z,0.50
2023-03-05T12:47:55.056Z,0.17
2023-03-05T12:50:28.431Z,0.40
2023-03-05T12:52:57.254Z,0.30
2023-03-05T12:55:37.948Z,0.45
2023-03-05T12:58:25.963Z,0.50
2023-03-05T13:01:16.706Z,0.40
2023-03-05T13:04:05.199Z,0.38
2023-03-05T13:06:35.809Z,0.30
2023-03-05T13:09:04.328Z,0.50
2023-03-05T13:11:35.020Z,0.65
2023-03-05T13:14:03.114Z,1.13
2023-03-05T13:16:38.977Z,5.53
2023-03-05T13:19:16.578Z,4.75
2023-03-05T13:21:44.408Z,4.40
2023-03-05T13:24:19.586Z,2.47
2023-03-05T13:26:47.002Z,2.47
2023-03-05T13:29:18.394Z,1.75
2023-03-05T13:31:55.266Z,0.90
2023-03-05T13:34:44.535Z,2.40
2023-03-05T13:37:16.987Z,1.48
2023-03-05T13:40:15.679Z,1.17
2023-03-05T13:42:42.802Z,1.42
2023-03-05T13:45:24.257Z,0.90
2023-03-05T13:48:06.881Z,1.02
2023-03-05T13:50:39.204Z,1.10
2023-03-05T13:53:27.099Z,1.80
2023-03-05T13:55:57.913Z,1.10
2023-03-05T13:58:48.192Z,5.60
2023-03-05T14:01:31.920Z,0.55
2023-03-05T14:04:21.638Z,1.55
2023-03-05T14:07:22.453Z,0.95
2023-03-05T14:09:52.733Z,1.02
2023-03-05T14:12:27.386Z,0.40
2023-03-05T14:15:07.249Z,0.38
2023-03-05T14:17:39.358Z,0.75
2023-03-05T14:20:09.945Z,0.60
2023-03-05T14:22:39.215Z,0.57
2023-03-05T14:25:25.519Z,0.73
2023-03-05T14:27:53.458Z,1.20
2023-03-05T14:30:23.794Z,0.60
2023-03-05T14:32:56.303Z,1.25
2023-03-05T14:35:36.168Z,2.95
2023-03-05T14:38:04.078Z,2.20
2023-03-05T14:40:36.266Z,2.33
2023-03-05T14:43:06.898Z,1.70
2023-03-05T14:45:39.400Z,0.70
2023-03-05T14:48:08.214Z,0.82
2023-03-05T14:50:58.201Z,0.50
2023-03-05T14:53:29.411Z,0.47
2023-03-05T14:55:57.167Z,1.10
2023-03-05T14:58:32.572Z,0.60
2023-03-05T15:00:59.827Z,0.50
2023-03-05T15:03:28.083Z,5.55
2023-03-05T15:05:58.023Z,1.05
2023-03-05T15:08:30.460Z,0.57
2023-03-05T15:11:01.276Z,3.28
2023-03-05T15:13:29.308Z,3.88
2023-03-05T15:15:57.188Z,1.13
2023-03-05T15:18:25.471Z,2.90
2023-03-05T15:20:53.866Z,0.60
2023-03-05T15:23:21.373Z,0.70
2023-03-05T15:25:48.981Z,0.80
2023-03-05T15:28:19.351Z,0.85
2023-03-05T15:30:47.947Z,1.67
2023-03-05T15:33:17.130Z,3.30
2023-03-05T15:35:45.199Z,0.50
2023-03-05T15:38:12.467Z,2.60
2023-03-05T15:40:39.584Z,4.40
2023-03-05T15:43:07.281Z,1.95
2023-03-05T15:45:34.713Z,1.40
2023-03-05T15:48:02.311Z,1.65
2023-03-05T15:50:29.727Z,1.30
2023-03-05T15:52:58.064Z,2.78
2023-03-05T15:55:27.092Z,1.40
2023-03-05T15:57:54.760Z,2.20
2023-03-05T16:00:29.694Z,2.35
2023-03-05T16:02:57.371Z,1.05
2023-03-05T16:05:24.854Z,1.05
2023-03-05T16:07:53.121Z,0.63
2023-03-05T16:10:25.315Z,1.40
2023-03-05T16:13:15.346Z,1.48
2023-03-05T16:15:42.992Z,8.95
2023-03-05T16:18:14.337Z,3.95
2023-03-05T16:20:41.912Z,1.00
2023-03-05T16:23:09.391Z,1.70
2023-03-05T16:25:40.110Z,2.08
2023-03-05T16:28:07.450Z,3.00
2023-03-05T16:30:34.569Z,4.15
2023-03-05T16:33:02.368Z,2.75
2023-03-05T16:35:29.956Z,2.92
2023-03-05T16:37:57.367Z,4.00
2023-03-05T16:40:25.863Z,3.08
2023-03-05T16:42:53.321Z,0.95
2023-03-05T16:45:20.594Z,1.50
2023-03-05T16:47:53.687Z,1.25
2023-03-05T16:50:21.176Z,0.80
2023-03-05T16:52:48.665Z,1.05
2023-03-05T16:55:16.129Z,1.08
2023-03-05T16:57:43.840Z,1.38
2023-03-05T17:00:11.750Z,1.35
2023-03-05T17:02:39.145Z,1.98
2023-03-05T17:05:06.494Z,2.88
2023-03-05T17:07:34.137Z,1.40
2023-03-05T17:10:02.066Z,2.05
2023-03-05T17:12:30.073Z,2.30
2023-03-05T17:14:57.751Z,23.67
2023-03-05T17:17:27.129Z,4.80
2023-03-05T17:19:54.734Z,3.03
2023-03-05T17:22:22.413Z,2.20
2023-03-05T17:24:49.918Z,1.63
2023-03-05T17:27:18.869Z,1.80
2023-03-05T17:29:46.652Z,1.65
2023-03-05T17:32:14.196Z,2.22
2023-03-05T17:34:41.775Z,3.42
2023-03-05T17:37:09.269Z,1.10
2023-03-05T17:39:38.457Z,2.63
2023-03-05T17:42:06.102Z,2.30
2023-03-05T17:44:33.671Z,3.28
2023-03-05T17:47:00.706Z,2.25
2023-03-05T17:49:30.214Z,3.97
2023-03-05T17:51:59.918Z,3.88
2023-03-05T17:54:27.006Z,4.40
2023-03-05T17:56:55.639Z,6.07
2023-03-05T17:59:23.555Z,3.38
2023-03-05T18:01:51.163Z,4.15
2023-03-05T18:04:19.883Z,4.60
2023-03-05T18:06:47.417Z,2.55
2023-03-05T18:09:15.009Z,3.80
2023-03-05T18:11:48.362Z,5.50
2023-03-05T18:14:16.996Z,4.80
2023-03-05T18:16:44.755Z,3.08
2023-03-05T18:19:12.100Z,8.07
2023-03-05T18:21:40.829Z,5.88
2023-03-05T18:24:08.515Z,3.90
2023-03-05T18:26:35.995Z,2.80
2023-03-05T18:29:03.683Z,4.10
2023-03-05T18:31:30.780Z,4.00
2023-03-05T18:33:57.898Z,3.65
2023-03-05T18:36:26.059Z,3.92
2023-03-05T18:38:53.446Z,4.32
2023-03-05T18:41:27.639Z,2.90
2023-03-05T18:43:58.861Z,3.20
2023-03-05T18:46:28.972Z,3.63
2023-03-05T18:51:27.244Z,1.55
2023-03-05T18:53:55.109Z,1.40
2023-03-05T18:56:23.795Z,1.52
2023-03-05T18:58:53.799Z,1.10
2023-03-05T19:01:21.775Z,1.70
2023-03-05T19:03:49.494Z,1.30
2023-03-05T19:06:18.168Z,1.98
2023-03-05T19:08:46.359Z,2.03
2023-03-05T19:11:20.246Z,2.72
2023-03-05T19:13:51.150Z,2.28
2023-03-05T19:16:24.552Z,2.10
2023-03-05T19:19:13.800Z,2.53
2023-03-05T19:21:43.246Z,4.40
2023-03-05T19:24:13.051Z,3.78
2023-03-05T19:26:40.622Z,9.45
2023-03-05T19:29:08.651Z,5.40
2023-03-05T19:31:37.333Z,3.60
2023-03-05T19:34:05.088Z,2.13
2023-03-05T19:36:35.452Z,1.95
2023-03-05T19:39:07.758Z,1.50
2023-03-05T19:41:37.090Z,1.70
2023-03-05T19:44:04.991Z,1.95
2023-03-05T19:46:36.076Z,3.13
2023-03-05T19:49:03.712Z,12.52
2023-03-05T19:51:31.309Z,12.13
2023-03-05T19:53:58.699Z,13.85
2023-03-05T19:56:26.531Z,9.77
2023-03-05T19:58:54.092Z,9.60
2023-03-05T20:01:26.141Z,3.80
2023-03-05T20:03:55.580Z,11.18
2023-03-05T20:06:23.831Z,9.98
2023-03-05T20:08:52.829Z,23.10
2023-03-05T20:11:21.322Z,79.93
2023-03-05T20:13:49.275Z,50.22
2023-03-05T20:16:37.554Z,28.98
2023-03-05T20:19:06.943Z,9.00
2023-03-05T20:21:40.625Z,9.27
2023-03-05T20:24:11.872Z,7.43
2023-03-05T20:26:40.574Z,5.78
2023-03-05T20:29:08.663Z,7.50
2023-03-05T20:31:37.388Z,2.65
2023-03-05T20:34:10.232Z,2.63
2023-03-05T20:36:37.866Z,2.03
2023-03-05T20:39:06.377Z,2.50
2023-03-05T20:41:35.872Z,2.33
2023-03-05T20:44:03.542Z,2.28
2023-03-05T20:46:36.668Z,3.33
2023-03-05T20:49:04.750Z,2.15
2023-03-05T20:51:38.273Z,3.33
2023-03-05T20:54:08.732Z,1.80
2023-03-05T20:56:36.971Z,3.13
2023-03-05T20:59:07.574Z,3.38
2023-03-05T21:01:36.756Z,2.28
2023-03-05T21:04:04.367Z,2.13
2023-03-05T21:06:33.253Z,2.17
2023-03-05T21:09:01.125Z,1.13
2023-03-05T21:11:29.247Z,1.30
2023-03-05T21:13:56.854Z,0.93
2023-03-05T21:16:27.035Z,1.40
2023-03-05T21:18:56.054Z,1.60
2023-03-05T21:21:23.714Z,0.98
2023-03-05T21:23:52.158Z,1.88
2023-03-05T21:26:19.250Z,1.88
2023-03-05T21:28:46.818Z,1.20
2023-03-05T21:31:18.666Z,1.80
2023-03-05T21:33:46.185Z,1.25
2023-03-05T21:36:13.371Z,1.13
2023-03-05T21:38:40.705Z,1.17
2023-03-05T21:41:07.971Z,1.10
2023-03-05T21:43:35.454Z,2.05
2023-03-05T21:46:04.301Z,0.90
2023-03-05T21:48:32.413Z,1.02
2023-03-05T21:50:59.894Z,0.93
2023-03-05T21:53:30.416Z,1.45
2023-03-05T21:56:25.197Z,1.50
2023-03-05T21:58:53.653Z,0.85
2023-03-05T22:01:21.545Z,0.68
2023-03-05T22:03:49.764Z,0.73
2023-03-05T22:06:23.708Z,0.60
2023-03-05T22:08:51.613Z,0.80
2023-03-05T22:11:21.070Z,0.63
2023-03-05T22:13:48.668Z,0.68
2023-03-05T22:16:29.023Z,0.60
2023-03-05T22:18:56.762Z,1.17
2023-03-05T22:21:28.934Z,0.90
2023-03-05T22:23:59.852Z,0.73
2023-03-05T22:26:35.607Z,0.70
2023-03-05T22:29:08.590Z,0.90
2023-03-05T22:31:36.672Z,0.40
2023-03-05T22:34:09.260Z,0.82
2023-03-05T22:36:43.287Z,0.60
2023-03-05T22:39:11.083Z,0.70
2023-03-05T22:41:41.753Z,0.50
2023-03-05T22:44:09.434Z,1.20
2023-03-05T22:46:38.544Z,1.42
2023-03-05T22:49:09.158Z,1.52
2023-03-05T22:54:03.661Z,0.70
2023-03-05T22:56:38.663Z,0.50
2023-03-05T22:59:06.437Z,0.82
2023-03-05T23:01:36.471Z,0.60
2023-03-05T23:04:28.987Z,0.50
2023-03-05T23:06:57.071Z,0.90
2023-03-05T23:09:24.957Z,0.75
2023-03-05T23:11:55.590Z,0.60
2023-03-05T23:14:38.249Z,1.02
2023-03-05T23:17:10.075Z,0.85
2023-03-05T23:19:42.772Z,0.90
2023-03-05T23:22:13.725Z,0.75
2023-03-05T23:24:42.045Z,0.73
2023-03-05T23:27:10.895Z,0.85
2023-03-05T23:29:54.469Z,0.88
2023-03-05T23:32:24.257Z,0.90
2023-03-05T23:34:51.739Z,0.52
2023-03-05T23:37:18.889Z,0.70
2023-03-05T23:39:46.265Z,0.82
2023-03-05T23:42:13.404Z,0.85
2023-03-05T23:44:48.174Z,0.93
2023-03-05T23:47:19.195Z,0.40
2023-03-05T23:49:53.063Z,0.77
2023-03-05T23:52:20.920Z,0.70
2023-03-05T23:54:48.391Z,0.85
2023-03-05T23:57:18.837Z,0.60
2023-03-05T23:59:46.585Z,1.30
